createdAt,value
2022-12-15T00:00:04.464Z,95831.44
2022-12-15T00:03:13.337Z,95835.53
2022-12-15T00:06:19.723Z,95838.16
2022-12-15T00:09:30.661Z,95842.56
2022-12-15T00:12:39.041Z,95841.56
2022-12-15T00:15:44.644Z,95837.47
2022-12-15T00:18:49.928Z,95834.19
2022-12-15T00:21:55.781Z,95848.72
2022-12-15T00:25:01.194Z,95853.41
2022-12-15T00:28:06.533Z,95869.47
2022-12-15T00:31:12.275Z,95865.19
2022-12-15T00:34:17.879Z,95862.47
2022-12-15T00:37:25.835Z,95861.50
2022-12-15T00:40:16.050Z,95868.50
2022-12-15T00:43:03.324Z,95875.00
2022-12-15T00:46:08.925Z,95898.03
2022-12-15T00:48:56.385Z,95881.84
2022-12-15T00:52:06.533Z,95894.91
2022-12-15T00:55:12.130Z,95876.63
2022-12-15T00:58:17.956Z,95890.38
2022-12-15T01:01:29.580Z,95899.00
2022-12-15T01:04:37.457Z,95892.97
2022-12-15T01:07:43.088Z,95888.84
2022-12-15T01:10:48.644Z,95900.66
2022-12-15T01:13:54.091Z,95899.31
2022-12-15T01:16:59.316Z,95911.09
2022-12-15T01:20:04.730Z,95916.31
2022-12-15T01:22:54.395Z,95931.69
2022-12-15T01:25:41.194Z,95922.34
2022-12-15T01:28:28.748Z,95927.44
2022-12-15T01:31:15.939Z,95927.72
2022-12-15T01:34:02.851Z,95929.53
2022-12-15T01:36:49.741Z,95937.34
2022-12-15T01:39:55.288Z,95944.75
2022-12-15T01:42:42.293Z,95950.13
2022-12-15T01:45:29.042Z,95942.94
2022-12-15T01:48:27.543Z,95945.56
2022-12-15T01:51:19.951Z,95937.06
2022-12-15T01:54:10.429Z,95949.00
2022-12-15T01:57:05.264Z,95938.72
2022-12-15T01:59:56.717Z,95957.09
2022-12-15T02:02:43.690Z,95977.88
2022-12-15T02:05:33.949Z,95973.47
2022-12-15T02:08:20.973Z,95968.41
2022-12-15T02:11:45.638Z,95967.25
2022-12-15T02:14:53.439Z,95973.47
2022-12-15T02:17:58.751Z,95978.69
2022-12-15T02:21:20.847Z,95974.03
2022-12-15T02:24:38.101Z,95984.88
2022-12-15T02:27:47.783Z,95981.28
2022-12-15T02:31:08.862Z,95959.72
2022-12-15T02:34:06.327Z,95964.94
2022-12-15T02:37:00.851Z,95988.44
2022-12-15T02:39:47.732Z,95993.66
2022-12-15T02:42:39.192Z,95998.06
2022-12-15T02:45:37.654Z,96005.63
2022-12-15T02:48:38.137Z,96008.09
2022-12-15T02:52:15.638Z,95984.19
2022-12-15T02:55:23.005Z,95984.59
2022-12-15T02:58:27.636Z,95995.16
2022-12-15T03:01:34.564Z,95991.91
2022-12-15T03:04:22.040Z,96002.34
2022-12-15T03:07:10.109Z,96006.44
2022-12-15T03:10:00.573Z,96012.78
2022-12-15T03:12:47.729Z,96027.47
2022-12-15T03:15:35.705Z,96025.97
2022-12-15T03:18:23.012Z,96025.84
2022-12-15T03:21:09.898Z,96028.28
2022-12-15T03:23:56.834Z,96024.31
2022-12-15T03:26:43.842Z,96021.28
2022-12-15T03:29:30.995Z,96024.88
2022-12-15T03:32:17.967Z,96016.06
2022-12-15T03:35:05.638Z,96016.22
2022-12-15T03:37:55.665Z,96011.81
2022-12-15T03:40:42.876Z,96011.66
2022-12-15T03:43:30.251Z,96010.28
2022-12-15T03:46:17.613Z,96015.94
2022-12-15T03:49:04.668Z,96016.22
2022-12-15T03:51:54.302Z,96028.00
2022-12-15T03:54:43.246Z,96029.81
2022-12-15T03:57:30.527Z,96037.63
2022-12-15T04:00:18.711Z,96036.94
2022-12-15T04:03:05.685Z,96026.50
2022-12-15T04:05:52.613Z,96035.16
2022-12-15T04:08:39.660Z,96039.56
2022-12-15T04:11:26.616Z,96037.09
2022-12-15T04:14:15.872Z,96052.59
2022-12-15T04:17:02.772Z,96059.47
2022-12-15T04:20:08.219Z,96050.28
2022-12-15T04:22:56.521Z,96055.22
2022-12-15T04:26:01.890Z,96060.72
2022-12-15T04:29:07.042Z,96059.63
2022-12-15T04:32:12.495Z,96058.94
2022-12-15T04:35:17.681Z,96077.91
2022-12-15T04:38:23.282Z,96066.09
2022-12-15T04:41:28.878Z,96076.94
2022-12-15T04:44:34.767Z,96059.09
2022-12-15T04:47:42.245Z,96064.16
2022-12-15T04:50:47.753Z,96085.72
2022-12-15T04:53:55.390Z,96071.03
2022-12-15T04:57:00.845Z,96084.22
2022-12-15T05:00:06.446Z,96083.69
2022-12-15T05:03:17.977Z,96101.56
2022-12-15T05:06:24.007Z,96104.97
2022-12-15T05:09:29.619Z,96128.47
2022-12-15T05:12:35.150Z,96138.38
2022-12-15T05:15:40.558Z,96138.94
2022-12-15T05:18:45.844Z,96135.50
2022-12-15T05:21:51.443Z,96121.59
2022-12-15T05:24:57.039Z,96130.28
2022-12-15T05:28:02.712Z,96117.22
2022-12-15T05:31:07.995Z,96115.44
2022-12-15T05:34:08.293Z,96135.50
2022-12-15T05:36:56.195Z,96138.94
2022-12-15T05:39:42.959Z,96160.63
2022-12-15T05:42:29.880Z,96148.56
2022-12-15T05:45:16.853Z,96139.75
2022-12-15T05:48:03.754Z,96134.09
2022-12-15T05:50:50.607Z,96133.81
2022-12-15T05:53:43.636Z,96134.38
2022-12-15T05:56:30.559Z,96113.75
2022-12-15T05:59:19.303Z,96125.06
2022-12-15T06:02:06.267Z,96136.31
2022-12-15T06:04:58.556Z,96130.28
2022-12-15T06:07:47.974Z,96149.22
2022-12-15T06:10:43.476Z,96144.00
2022-12-15T06:13:34.284Z,96142.09
2022-12-15T06:16:27.654Z,96157.19
2022-12-15T06:19:57.916Z,96187.56
2022-12-15T06:22:49.752Z,96175.88
2022-12-15T06:25:37.368Z,96167.66
2022-12-15T06:28:25.024Z,96179.34
2022-12-15T06:31:12.742Z,96179.34
2022-12-15T06:34:02.310Z,96186.19
2022-12-15T06:36:50.203Z,96186.03
2022-12-15T06:39:36.980Z,96184.41
2022-12-15T06:42:23.780Z,96187.84
2022-12-15T06:45:10.825Z,96209.28
2022-12-15T06:48:01.255Z,96212.84
2022-12-15T06:50:50.231Z,96227.56
2022-12-15T06:53:41.163Z,96217.09
2022-12-15T06:56:33.968Z,96224.94
2022-12-15T06:59:24.828Z,96215.47
2022-12-15T07:02:21.110Z,96211.22
2022-12-15T07:05:10.754Z,96209.69
2022-12-15T07:08:02.367Z,96209.41
2022-12-15T07:10:51.421Z,96211.34
2022-12-15T07:13:41.131Z,96214.91
2022-12-15T07:16:27.996Z,96213.94
2022-12-15T07:19:15.281Z,96213.81
2022-12-15T07:22:02.436Z,96214.66
2022-12-15T07:24:49.311Z,96224.13
2022-12-15T07:27:37.868Z,96211.88
2022-12-15T07:30:24.633Z,96210.09
2022-12-15T07:33:11.497Z,96220.53
2022-12-15T07:35:58.275Z,96223.16
2022-12-15T07:38:50.120Z,96215.59
2022-12-15T07:41:38.683Z,96223.28
2022-12-15T07:44:27.716Z,96220.69
2022-12-15T07:47:14.602Z,96215.47
2022-12-15T07:50:01.755Z,96212.84
2022-12-15T07:52:50.955Z,96216.28
2022-12-15T07:56:05.648Z,96219.88
2022-12-15T07:58:48.176Z,96236.19
2022-12-15T08:01:35.331Z,96233.03
2022-12-15T08:04:22.657Z,96248.72
2022-12-15T08:07:10.717Z,96242.66
2022-12-15T08:09:57.775Z,96236.78
2022-12-15T08:12:44.751Z,96264.38
2022-12-15T08:15:31.599Z,96249.53
2022-12-15T08:18:18.772Z,96255.03
2022-12-15T08:21:17.118Z,96262.72
2022-12-15T08:24:04.587Z,96262.72
2022-12-15T08:27:15.891Z,96269.75
2022-12-15T08:30:06.832Z,96256.00
2022-12-15T08:33:11.934Z,96281.00
2022-12-15T08:36:00.448Z,96274.97
2022-12-15T08:38:47.690Z,96275.38
2022-12-15T08:41:34.568Z,96275.94
2022-12-15T08:44:31.779Z,96285.53
2022-12-15T08:47:18.659Z,96269.19
2022-12-15T08:50:09.039Z,96265.50
2022-12-15T08:53:29.023Z,96265.59
2022-12-15T08:56:05.746Z,96284.72
2022-12-15T08:58:57.946Z,96298.31
2022-12-15T09:01:45.206Z,96295.16
2022-12-15T09:04:32.386Z,96301.91
2022-12-15T09:07:23.673Z,96303.53
2022-12-15T09:10:10.610Z,96311.53
2022-12-15T09:12:57.670Z,96316.59
2022-12-15T09:16:08.768Z,96320.03
2022-12-15T09:18:54.797Z,96323.50
2022-12-15T09:21:44.915Z,96328.00
2022-12-15T09:24:35.704Z,96322.94
2022-12-15T09:27:22.715Z,96329.66
2022-12-15T09:30:09.956Z,96328.81
2022-12-15T09:32:57.132Z,96322.78
2022-12-15T09:35:51.352Z,96318.25
2022-12-15T09:38:39.064Z,96306.16
2022-12-15T09:41:36.153Z,96297.38
2022-12-15T09:44:27.158Z,96297.38
2022-12-15T09:47:42.198Z,96311.25
2022-12-15T09:50:39.356Z,96304.66
2022-12-15T09:53:53.721Z,96291.72
2022-12-15T09:56:44.193Z,96294.22
2022-12-15T10:00:07.923Z,96286.22
2022-12-15T10:03:20.199Z,96264.25
2022-12-15T10:09:30.514Z,96267.16
2022-12-15T10:12:30.056Z,96257.53
2022-12-15T10:15:18.949Z,96251.06
2022-12-15T10:18:15.276Z,96259.72
2022-12-15T10:21:03.296Z,96252.16
2022-12-15T10:23:59.438Z,96262.03
2022-12-15T10:27:08.490Z,96262.59
2022-12-15T10:30:04.522Z,96267.81
2022-12-15T10:33:22.323Z,96258.47
2022-12-15T10:55:31.280Z,96223.16
2022-12-15T11:03:17.502Z,96220.41
2022-12-15T11:07:54.268Z,96197.31
2022-12-15T11:18:28.567Z,96199.09
2022-12-15T11:22:46.235Z,96195.66
2022-12-15T11:25:48.354Z,96206.66
2022-12-15T11:31:20.737Z,96209.94
2022-12-15T11:33:29.833Z,96229.06
2022-12-15T11:37:20.676Z,96213.66
2022-12-15T11:44:46.915Z,96214.63
2022-12-15T11:48:49.001Z,96201.16
2022-12-15T11:56:37.658Z,96217.78
2022-12-15T12:04:11.468Z,96215.03
2022-12-15T12:11:15.908Z,96206.22
2022-12-15T12:18:33.109Z,96172.53
2022-12-15T12:21:24.822Z,96156.31
2022-12-15T12:24:22.685Z,96167.53
2022-12-15T12:27:20.087Z,96168.50
2022-12-15T12:30:14.187Z,96181.91
2022-12-15T12:33:29.437Z,96161.66
2022-12-15T12:36:29.574Z,96170.47
2022-12-15T12:39:21.555Z,96176.22
2022-12-15T12:42:24.789Z,96171.38
2022-12-15T12:45:12.822Z,96177.69
2022-12-15T12:48:15.466Z,96182.34
2022-12-15T12:51:24.552Z,96190.97
2022-12-15T12:54:42.316Z,96175.81
2022-12-15T12:57:40.568Z,96175.50
2022-12-15T13:00:29.219Z,96163.38
2022-12-15T13:03:19.770Z,96159.50
2022-12-15T13:06:41.824Z,96171.63
2022-12-15T13:09:47.783Z,96159.91
2022-12-15T13:12:54.871Z,96165.50
2022-12-15T13:15:51.873Z,96148.16
2022-12-15T13:19:04.823Z,96138.06
2022-12-15T13:22:01.854Z,96128.22
2022-12-15T13:24:53.481Z,96133.97
2022-12-15T13:27:41.861Z,96127.06
2022-12-15T13:30:38.048Z,96129.41
2022-12-15T13:33:27.521Z,96138.31
2022-12-15T13:36:39.943Z,96132.94
2022-12-15T13:39:36.051Z,96130.84
2022-12-15T13:42:53.131Z,96123.28
2022-12-15T13:45:51.203Z,96115.78
2022-12-15T13:49:04.715Z,96103.16
2022-12-15T13:51:59.202Z,96095.31
2022-12-15T13:54:59.028Z,96102.72
2022-12-15T13:57:59.460Z,96105.19
2022-12-15T14:00:54.336Z,96106.16
2022-12-15T14:04:06.159Z,96113.88
2022-12-15T14:07:06.932Z,96110.72
2022-12-15T14:09:54.057Z,96119.41
2022-12-15T14:12:44.281Z,96113.63
2022-12-15T14:15:32.682Z,96111.38
2022-12-15T14:18:26.435Z,96118.28
2022-12-15T14:21:21.937Z,96103.81
2022-12-15T14:24:40.249Z,96110.44
2022-12-15T14:27:30.931Z,96105.50
2022-12-15T14:30:33.325Z,96111.38
2022-12-15T14:33:22.100Z,96106.44
2022-12-15T14:36:14.612Z,96109.06
2022-12-15T14:39:06.792Z,96109.59
2022-12-15T14:41:54.133Z,96096.81
2022-12-15T14:44:49.712Z,96106.84
2022-12-15T14:47:37.690Z,96095.84
2022-12-15T14:50:25.430Z,96106.84
2022-12-15T14:53:17.836Z,96102.34
2022-12-15T14:56:20.386Z,96101.22
2022-12-15T14:59:19.870Z,96076.47
2022-12-15T15:02:22.811Z,96084.56
2022-12-15T15:03:10.516Z,96273.56
2022-12-15T15:05:26.181Z,96082.75
2022-12-15T15:08:28.451Z,96072.88
2022-12-15T15:11:37.013Z,96077.00
2022-12-15T15:14:27.691Z,96067.53
2022-12-15T15:17:17.128Z,96059.44
2022-12-15T15:20:07.015Z,96059.44
2022-12-15T15:23:12.044Z,96072.75
2022-12-15T15:26:05.210Z,96076.47
2022-12-15T15:28:52.204Z,96075.97
2022-12-15T15:31:41.859Z,96082.69
2022-12-15T15:34:29.044Z,96071.53
2022-12-15T15:37:24.192Z,96072.53
2022-12-15T15:40:14.465Z,96077.47
2022-12-15T15:43:01.360Z,96083.50
2022-12-15T15:45:49.388Z,96084.09
2022-12-15T15:49:39.444Z,96097.41
2022-12-15T15:56:19.932Z,96096.28
2022-12-15T16:02:57.333Z,96084.78
2022-12-15T16:06:20.826Z,96087.41
2022-12-15T16:09:24.222Z,96089.41
2022-12-15T16:12:46.149Z,96081.84
2022-12-15T16:16:20.099Z,96077.75
2022-12-15T16:19:13.310Z,96068.69
2022-12-15T16:22:30.035Z,96065.94
2022-12-15T16:25:50.321Z,96067.88
2022-12-15T16:28:43.872Z,96073.28
2022-12-15T16:32:05.425Z,96070.78
2022-12-15T16:34:55.052Z,96082.28
2022-12-15T16:37:46.572Z,96071.19
2022-12-15T16:40:37.480Z,96057.28
2022-12-15T16:43:32.890Z,96061.00
2022-12-15T16:46:23.156Z,96056.75
2022-12-15T16:49:11.229Z,96061.00
2022-12-15T16:52:00.843Z,96055.91
2022-12-15T16:54:49.081Z,96037.59
2022-12-15T16:57:35.839Z,96042.19
2022-12-15T17:00:26.061Z,96041.19
2022-12-15T17:03:14.562Z,96030.91
2022-12-15T17:06:06.710Z,96030.91
2022-12-15T17:08:55.105Z,96040.53
2022-12-15T17:11:42.333Z,96035.44
2022-12-15T17:14:29.106Z,96036.25
2022-12-15T17:17:17.535Z,96037.41
2022-12-15T17:20:28.483Z,96039.03
2022-12-15T17:23:17.510Z,96037.53
2022-12-15T17:26:28.138Z,96049.78
2022-12-15T17:29:16.541Z,96035.38
2022-12-15T17:32:03.621Z,96047.34
2022-12-15T17:34:50.691Z,96048.44
2022-12-15T17:37:38.044Z,96063.97
2022-12-15T17:40:25.264Z,96055.31
2022-12-15T17:43:36.812Z,96059.72
2022-12-15T17:46:27.969Z,96048.91
2022-12-15T17:49:19.842Z,96048.91
2022-12-15T17:52:28.481Z,96050.53
2022-12-15T17:55:35.006Z,96049.56
2022-12-15T17:58:27.979Z,96047.91
2022-12-15T18:01:40.643Z,96046.28
2022-12-15T18:04:36.251Z,96038.44
2022-12-15T18:07:23.913Z,96028.56
2022-12-15T18:10:42.786Z,96029.09
2022-12-15T18:13:35.536Z,96009.97
2022-12-15T18:16:24.676Z,96009.56
2022-12-15T18:19:12.000Z,96005.03
2022-12-15T18:21:59.203Z,95986.66
2022-12-15T18:24:48.921Z,95995.03
2022-12-15T18:27:35.832Z,95999.00
2022-12-15T18:30:26.658Z,95986.91
2022-12-15T18:33:14.029Z,95984.72
2022-12-15T18:36:11.330Z,95986.03
2022-12-15T18:39:23.639Z,95979.19
2022-12-15T18:42:17.839Z,95974.13
2022-12-15T18:45:13.376Z,95975.91
2022-12-15T18:48:04.212Z,95973.59
2022-12-15T18:50:55.977Z,95972.31
2022-12-15T18:53:42.868Z,95976.56
2022-12-15T18:56:37.341Z,95976.56
2022-12-15T18:59:27.201Z,95974.78
2022-12-15T19:02:20.711Z,95963.13
2022-12-15T19:05:28.560Z,95970.53
2022-12-15T19:08:36.320Z,95962.84
2022-12-15T19:11:41.430Z,95967.56
2022-12-15T19:14:40.550Z,95963.28
2022-12-15T19:17:49.084Z,95967.56
2022-12-15T19:20:54.671Z,95970.97
2022-12-15T19:23:41.560Z,95960.38
2022-12-15T19:26:36.993Z,95953.78
2022-12-15T19:29:23.845Z,95959.38
2022-12-15T19:32:35.074Z,95957.22
2022-12-15T19:35:22.254Z,95954.16
2022-12-15T19:38:24.545Z,95943.03
2022-12-15T19:41:26.473Z,95939.09
2022-12-15T19:44:20.102Z,95941.41
2022-12-15T19:47:20.811Z,95946.31
2022-12-15T19:50:15.988Z,95932.06
2022-12-15T19:53:06.843Z,95912.66
2022-12-15T19:56:03.603Z,95916.63
2022-12-15T19:58:53.163Z,95913.59
2022-12-15T20:01:43.801Z,95904.94
2022-12-15T20:04:32.285Z,95909.06
2022-12-15T20:07:32.212Z,95904.13
2022-12-15T20:10:29.805Z,95912.50
2022-12-15T20:13:25.975Z,95908.38
2022-12-15T20:16:19.227Z,95897.78
2022-12-15T20:19:06.380Z,95898.59
2022-12-15T20:21:55.891Z,95889.13
2022-12-15T20:24:44.209Z,95884.84
2022-12-15T20:27:31.303Z,95883.22
2022-12-15T20:30:35.340Z,95874.69
2022-12-15T20:33:22.585Z,95894.38
2022-12-15T20:36:13.782Z,95896.47
2022-12-15T20:39:06.459Z,95884.56
2022-12-15T20:45:41.695Z,95878.28
2022-12-15T20:56:40.633Z,95876.59
2022-12-15T20:59:45.305Z,95867.31
2022-12-15T21:03:04.796Z,95871.47
2022-12-15T21:06:26.550Z,95860.03
2022-12-15T21:13:12.475Z,95855.38
2022-12-15T21:16:18.224Z,95844.59
2022-12-15T21:19:34.537Z,95867.56
2022-12-15T21:23:29.445Z,95842.69
2022-12-15T21:29:52.647Z,95831.13
2022-12-15T21:32:52.003Z,95847.66
2022-12-15T21:36:14.701Z,95845.53
2022-12-15T21:42:38.607Z,95860.09
2022-12-15T21:45:47.707Z,95852.25
2022-12-15T21:56:11.691Z,95823.00
2022-12-15T22:03:02.602Z,95826.94
2022-12-15T22:06:13.102Z,95835.97
2022-12-15T22:09:22.523Z,95830.06
2022-12-15T22:16:32.680Z,95829.44
2022-12-15T22:19:46.846Z,95819.75
2022-12-15T22:23:20.168Z,95802.25
2022-12-15T22:27:22.496Z,95801.28
2022-12-15T22:30:33.135Z,95817.00
2022-12-15T22:33:47.600Z,95813.38
2022-12-15T22:36:48.602Z,95811.59
2022-12-15T22:39:47.845Z,95805.00
2022-12-15T22:42:47.565Z,95807.81
2022-12-15T22:46:10.974Z,95813.75
2022-12-15T22:49:26.170Z,95793.59
2022-12-15T22:52:47.804Z,95799.34
2022-12-15T22:56:04.586Z,95793.59
2022-12-15T22:59:32.071Z,95802.25
2022-12-15T23:02:44.062Z,95802.41
2022-12-15T23:05:52.999Z,95802.41
2022-12-15T23:08:55.763Z,95808.66
2022-12-15T23:11:55.362Z,95798.00
2022-12-15T23:18:20.624Z,95795.91
2022-12-15T23:21:30.893Z,95785.25
2022-12-15T23:24:31.725Z,95787.84
2022-12-15T23:27:26.502Z,95785.56
2022-12-15T23:30:44.447Z,95778.22
2022-12-15T23:33:46.087Z,95796.84
2022-12-15T23:40:39.173Z,95784.44
2022-12-15T23:43:42.318Z,95780.03
2022-12-15T23:46:36.797Z,95772.16
2022-12-15T23:49:46.860Z,95772.16
2022-12-15T23:52:43.698Z,95776.56
2022-12-15T23:55:43.384Z,95789.69
2022-12-15T23:58:57.571Z,95786.56
